Portada
METAR-TAF:

METAR-TAF

Aeroports :

Aeroport Internacional de Dubai

Dubai, Emirats Àrabs Units

latitud: 25-15-10N, longitud: 055-21-52E, altitud: 8 m

Observació

L'informe es va fer fa 39 minuts, a les 22:00 UTC
Vent 3 kt del Est/Sud-Est, variant entre Nord-Est i Sud
Temperatura 23°C
Humitat 44%
Pressió 1016 hPa
Visibilitat 10 km o més
sense núvols per sota de 1500 mi sense presència de cumulonimbus.

METAR: OMDB 132200Z 11003KT 040V170 CAVOK 23/10 Q1016 NOSIG

Hora: 02:39 (22:39 UTC)

Pronòstic

L'informe es va fer fa 5 hores i 44 minuts, a les 16:55 UTC
Pronòstic vàlid del 13 a les 18 UTC al 15 a les 00 UTC
Vent 5 kt del Est
Visibilitat 10 km o més
sense núvols per sota de 1500 mi sense presència de cumulonimbus.
Evolucionant progressivament
l' 14 a les 09 UTC al 14 a les 11 UTC
Vent 12 kt del Nord
Evolucionant progressivament
l' 14 a les 16 UTC al 14 a les 18 UTC
Vent 5 kt del Est/Sud-Est

TAF: OMDB 131655Z 1318/1500 09005KT CAVOK BECMG 1409/1411 35012KT BECMG 1416/1418 12005KT

Observacions i pronòstics meteorològics de més de 4000 aeroports (METAR i TAF).

Les estacions disponibles són els punts grocs i vermells al mapa.

Posi el ratolí al punt desitjat per veure el nom de l'estació.

Feu clic per veure les observacions i els pronòstics meteorològics.

Per canviar el mapa: feu clic els botons verds amb una creu de color negre per apropar; al botó verd amb un guió per allunyar la imatge; o en les fletxes verdes per a mapes adjacents.


METAR-TAF: